Time;durP1;ratioP1;P1;durP2;ratioP2;P2;SDS_P1;SDS_P2;PMS_P1;PMS_P2;Temp;Humidity;BMP_temperature;BMP_pressure;BME280_temperature;BME280_humidity;BME280_pressure;Samples;Min_cycle;Max_cycle;Signal;HPM_P1;HPM_P2
2022/11/21 00:00:34;;;;;;;3.93;3.73;;;;;;;4.31;100.00;95986.94;4996505;28;20238;-67
2022/11/21 00:03:00;;;;;;;4.00;3.80;;;;;;;4.29;100.00;95979.38;4988376;28;20662;-67
2022/11/21 00:05:28;;;;;;;3.33;3.23;;;;;;;4.25;100.00;95985.97;4996308;28;20188;-67
2022/11/21 00:07:54;;;;;;;4.00;3.80;;;;;;;4.14;100.00;95966.69;4971473;28;20186;-67
2022/11/21 00:10:19;;;;;;;3.57;3.27;;;;;;;4.24;100.00;95958.44;4976348;28;20271;-68
2022/11/21 00:12:45;;;;;;;3.47;3.37;;;;;;;4.17;100.00;95970.66;4976854;28;20212;-67
2022/11/21 00:15:10;;;;;;;3.87;3.67;;;;;;;4.36;100.00;95966.38;4986361;28;20195;-67
2022/11/21 00:17:35;;;;;;;3.83;3.73;;;;;;;4.23;100.00;95959.47;4992037;28;20211;-67
2022/11/21 00:20:01;;;;;;;3.97;3.87;;;;;;;4.28;100.00;95959.66;4979948;28;20193;-68
2022/11/21 00:22:26;;;;;;;3.60;3.50;;;;;;;4.25;100.00;95949.66;4977105;28;20193;-67
2022/11/21 00:24:51;;;;;;;3.70;3.60;;;;;;;4.25;100.00;95948.88;4983534;28;20218;-70
2022/11/21 00:27:17;;;;;;;4.17;3.87;;;;;;;4.22;100.00;95939.72;4986351;28;20193;-68
2022/11/21 00:29:42;;;;;;;4.10;3.87;;;;;;;4.20;100.00;95939.13;4976650;28;20255;-67
2022/11/21 00:32:07;;;;;;;3.77;3.67;;;;;;;4.14;100.00;95930.38;4976913;28;20999;-68
2022/11/21 00:34:33;;;;;;;3.70;3.60;;;;;;;4.25;100.00;95931.50;4976601;28;20189;-68
2022/11/21 00:36:58;;;;;;;3.33;3.13;;;;;;;4.12;100.00;95924.59;4982972;28;20207;-67
2022/11/21 00:39:23;;;;;;;3.30;3.20;;;;;;;4.03;100.00;95918.06;4986134;28;20556;-67
2022/11/21 00:41:49;;;;;;;3.60;3.50;;;;;;;4.00;100.00;95918.50;4976223;28;20188;-70
2022/11/21 00:44:14;;;;;;;3.73;3.63;;;;;;;4.01;100.00;95920.06;4975876;28;20192;-67
2022/11/21 00:46:39;;;;;;;4.37;4.17;;;;;;;3.96;100.00;95911.31;4992145;28;20240;-67
2022/11/21 00:49:04;;;;;;;4.00;3.83;;;;;;;3.94;100.00;95910.75;4976367;28;20212;-67
2022/11/21 00:51:30;;;;;;;4.27;4.07;;;;;;;3.99;100.00;95910.91;4976448;28;20200;-67
2022/11/21 00:53:55;;;;;;;4.30;4.10;;;;;;;3.94;100.00;95902.97;4975970;28;20188;-68
2022/11/21 00:56:20;;;;;;;3.97;3.87;;;;;;;3.84;100.00;95913.78;4990930;28;20564;-66
2022/11/21 00:58:46;;;;;;;4.20;3.90;;;;;;;3.69;100.00;95900.25;4958577;28;20185;-67
2022/11/21 01:01:13;;;;;;;4.07;3.97;;;;;;;3.63;100.00;95901.06;4983065;28;20188;-67
2022/11/21 01:03:39;;;;;;;3.70;3.50;;;;;;;3.63;100.00;95896.69;4988680;28;20588;-67
2022/11/21 01:06:10;;;;;;;3.50;3.40;;;;;;;3.59;100.00;95898.13;4976038;28;20267;-68
2022/11/21 01:08:37;;;;;;;3.63;3.53;;;;;;;3.52;100.00;95899.91;4986965;28;20197;-67
2022/11/21 01:11:09;;;;;;;3.00;2.90;;;;;;;3.54;100.00;95890.16;4975655;28;20180;-68
2022/11/21 01:13:34;;;;;;;3.23;3.13;;;;;;;3.52;100.00;95907.69;4980676;28;20190;-67
2022/11/21 01:16:09;;;;;;;3.50;3.40;;;;;;;3.66;100.00;95906.66;4971432;28;20275;-67
2022/11/21 01:18:35;;;;;;;3.40;3.30;;;;;;;3.71;100.00;95906.84;4987667;28;20190;-67
2022/11/21 01:21:02;;;;;;;3.17;3.07;;;;;;;3.71;100.00;95899.06;4994728;28;20332;-67
2022/11/21 01:23:28;;;;;;;3.30;3.20;;;;;;;3.82;100.00;95894.25;4994458;28;20220;-68
2022/11/21 01:25:53;;;;;;;3.20;3.00;;;;;;;3.89;100.00;95897.59;4985025;28;20183;-68
2022/11/21 01:28:19;;;;;;;3.30;3.20;;;;;;;3.81;100.00;95897.81;4975370;28;20209;-68
2022/11/21 01:30:44;;;;;;;3.33;3.23;;;;;;;3.89;100.00;95892.41;4975891;28;20260;-67
2022/11/21 01:33:09;;;;;;;3.60;3.40;;;;;;;3.82;100.00;95891.66;4958116;28;20275;-67
2022/11/21 01:35:35;;;;;;;4.10;3.53;;;;;;;3.80;100.00;95889.25;4982544;28;20282;-67
2022/11/21 01:38:00;;;;;;;3.93;3.63;;;;;;;3.88;100.00;95885.66;4994374;28;20189;-68
2022/11/21 01:40:25;;;;;;;3.60;3.40;;;;;;;3.85;100.00;95878.25;4992889;28;20207;-68
2022/11/21 01:42:51;;;;;;;4.40;3.70;;;;;;;3.84;100.00;95880.09;4994220;28;20685;-67
2022/11/21 01:45:54;;;;;;;3.73;3.47;;;;;;;3.84;100.00;95882.69;4989071;28;20185;-67
2022/11/21 01:48:25;;;;;;;4.23;3.93;;;;;;;3.88;100.00;95883.84;4975234;28;20207;-67
2022/11/21 01:50:52;;;;;;;4.33;2.90;;;;;;;3.86;100.00;95874.69;4975398;28;20187;-67
2022/11/21 01:53:18;;;;;;;4.00;3.10;;;;;;;3.79;100.00;95874.69;4975282;28;20208;-67
2022/11/21 01:55:43;;;;;;;3.40;3.20;;;;;;;3.79;100.00;95864.34;4983122;28;20645;-67
2022/11/21 01:58:10;;;;;;;3.37;3.17;;;;;;;3.78;100.00;95862.78;4983073;28;20188;-67
2022/11/21 02:00:38;;;;;;;5.20;3.93;;;;;;;3.87;100.00;95863.31;4989262;28;20625;-67
2022/11/21 02:03:09;;;;;;;5.00;4.00;;;;;;;3.72;100.00;95851.44;4994012;28;20211;-68
2022/11/21 02:05:36;;;;;;;4.23;3.93;;;;;;;3.84;100.00;95855.97;4987419;28;20547;-68
2022/11/21 02:08:06;;;;;;;3.80;3.53;;;;;;;3.80;100.00;95850.38;4987144;28;20219;-67
2022/11/21 02:10:33;;;;;;;4.53;4.13;;;;;;;3.86;100.00;95856.53;4974784;28;20188;-68
2022/11/21 02:12:59;;;;;;;3.90;3.73;;;;;;;3.76;100.00;95851.81;4975080;28;20193;-68
2022/11/21 02:15:27;;;;;;;4.33;3.97;;;;;;;3.80;100.00;95850.38;4993576;28;20671;-68
2022/11/21 02:17:53;;;;;;;4.30;4.00;;;;;;;3.75;100.00;95843.22;4995160;28;20192;-68
2022/11/21 02:20:21;;;;;;;4.57;4.20;;;;;;;3.76;100.00;95839.66;4983033;28;20255;-67
2022/11/21 02:23:25;;;;;;;4.53;4.23;;;;;;;3.64;100.00;95845.69;4974771;28;20192;-67
2022/11/21 02:25:52;;;;;;;4.23;4.00;;;;;;;3.66;100.00;95849.66;4975050;28;20554;-67
2022/11/21 02:28:20;;;;;;;6.80;6.30;;;;;;;3.64;100.00;95840.50;4957206;28;20539;-67
2022/11/21 02:30:45;;;;;;;4.37;4.10;;;;;;;3.72;100.00;95842.88;4974464;28;20745;-67
2022/11/21 02:33:12;;;;;;;4.37;4.17;;;;;;;3.61;100.00;95848.69;4976129;28;20267;-67
2022/11/21 02:35:38;;;;;;;4.57;4.17;;;;;;;3.64;100.00;95846.47;4993753;28;20182;-67
2022/11/21 02:38:18;;;;;;;4.57;4.27;;;;;;;3.62;100.00;95845.09;4993437;28;20599;-67
2022/11/21 02:40:52;;;;;;;4.47;4.17;;;;;;;3.71;100.00;95846.44;4979971;28;20191;-68
2022/11/21 02:43:28;;;;;;;4.17;3.80;;;;;;;3.71;100.00;95847.25;4976272;28;20629;-68
2022/11/21 02:45:54;;;;;;;4.60;4.17;;;;;;;3.70;100.00;95855.22;4993393;28;20271;-67
2022/11/21 02:48:19;;;;;;;4.50;4.20;;;;;;;3.63;100.00;95847.47;4993533;28;20283;-67
2022/11/21 02:50:45;;;;;;;4.00;3.90;;;;;;;3.65;100.00;95844.69;4991090;28;20176;-68
2022/11/21 02:53:14;;;;;;;4.60;4.20;;;;;;;3.64;100.00;95845.69;4990284;28;20192;-68
2022/11/21 02:55:40;;;;;;;4.60;4.40;;;;;;;3.60;100.00;95842.72;4974166;28;20204;-68
2022/11/21 02:58:06;;;;;;;4.00;3.80;;;;;;;3.65;100.00;95836.91;4974070;28;20239;-67
2022/11/21 03:00:33;;;;;;;4.63;4.43;;;;;;;3.59;100.00;95835.94;4982853;28;20188;-67
2022/11/21 03:02:59;;;;;;;4.13;3.93;;;;;;;3.65;100.00;95831.72;4976519;28;20594;-68
2022/11/21 03:05:24;;;;;;;4.10;3.90;;;;;;;3.63;100.00;95825.94;4973794;28;20196;-68
2022/11/21 03:07:50;;;;;;;4.37;4.17;;;;;;;3.64;100.00;95822.34;4973457;28;20513;-68
2022/11/21 03:10:15;;;;;;;5.03;4.83;;;;;;;3.66;100.00;95815.97;4983578;28;20222;-67
2022/11/21 03:12:42;;;;;;;4.87;4.47;;;;;;;3.63;100.00;95810.41;4979636;28;20209;-67
2022/11/21 03:15:10;;;;;;;4.53;4.23;;;;;;;3.49;100.00;95808.88;4973341;28;20199;-69
2022/11/21 03:17:36;;;;;;;4.40;4.20;;;;;;;3.54;100.00;95817.63;4974111;28;20177;-67
2022/11/21 03:20:03;;;;;;;4.63;4.43;;;;;;;3.57;100.00;95817.19;4982156;28;20217;-68
2022/11/21 03:22:28;;;;;;;4.93;4.63;;;;;;;3.52;100.00;95808.47;4997214;28;20188;-68
2022/11/21 03:24:53;;;;;;;4.27;4.13;;;;;;;3.49;100.00;95798.53;4996813;28;20188;-69
2022/11/21 03:27:19;;;;;;;4.97;4.67;;;;;;;3.52;100.00;95795.50;4979557;28;20192;-69
2022/11/21 03:29:44;;;;;;;4.50;4.27;;;;;;;3.50;100.00;95787.97;4991875;28;20232;-67
2022/11/21 03:32:09;;;;;;;4.33;4.13;;;;;;;3.54;100.00;95803.88;4978116;28;20185;-68
2022/11/21 03:34:35;;;;;;;4.50;4.20;;;;;;;3.52;100.00;95808.47;4977927;28;20196;-67
2022/11/21 03:37:00;;;;;;;4.33;4.03;;;;;;;3.61;100.00;95815.00;4960294;28;20264;-68
2022/11/21 03:39:26;;;;;;;4.83;4.63;;;;;;;3.63;100.00;95820.75;4962593;28;20259;-68
2022/11/21 03:41:51;;;;;;;4.87;4.60;;;;;;;3.65;100.00;95826.53;4996698;28;20699;-68
2022/11/21 03:44:16;;;;;;;4.67;4.47;;;;;;;3.61;100.00;95820.19;4995941;28;20708;-68
2022/11/21 03:46:44;;;;;;;4.57;4.30;;;;;;;3.68;100.00;95815.75;4995222;28;20200;-68
2022/11/21 03:49:10;;;;;;;4.97;4.63;;;;;;;3.73;100.00;95821.13;4992969;28;20204;-68
2022/11/21 03:51:36;;;;;;;4.60;4.40;;;;;;;3.68;100.00;95816.56;4996503;28;20283;-68
2022/11/21 03:54:02;;;;;;;4.20;4.00;;;;;;;3.72;100.00;95812.56;4979305;28;20263;-68
2022/11/21 03:56:28;;;;;;;4.27;4.07;;;;;;;3.79;100.00;95809.91;4983654;28;20192;-68
2022/11/21 03:58:53;;;;;;;4.50;4.30;;;;;;;3.79;100.00;95812.50;4976997;28;20196;-68
2022/11/21 04:01:19;;;;;;;4.07;3.90;;;;;;;3.84;100.00;95812.69;4977326;28;20191;-68
2022/11/21 04:03:45;;;;;;;4.33;4.10;;;;;;;3.79;100.00;95815.09;4977129;28;20220;-68
2022/11/21 04:06:13;;;;;;;4.93;4.63;;;;;;;3.85;100.00;95818.66;4990312;28;20657;-68
2022/11/21 04:08:38;;;;;;;4.30;4.10;;;;;;;3.86;100.00;95817.66;4977038;28;20247;-68
2022/11/21 04:11:04;;;;;;;3.80;3.70;;;;;;;3.88;100.00;95813.06;4976921;28;20242;-68
2022/11/21 04:13:29;;;;;;;4.67;4.47;;;;;;;3.82;100.00;95811.31;4983164;28;20243;-68
2022/11/21 04:15:55;;;;;;;4.33;4.07;;;;;;;3.86;100.00;95810.69;4983434;28;20196;-68
2022/11/21 04:18:21;;;;;;;3.97;3.77;;;;;;;3.95;100.00;95819.03;4989512;28;20267;-69
2022/11/21 04:20:46;;;;;;;4.17;3.93;;;;;;;3.81;100.00;95815.69;4995679;28;20275;-68
2022/11/21 04:23:12;;;;;;;4.63;4.33;;;;;;;3.88;100.00;95807.88;4996046;28;20531;-68
2022/11/21 04:25:38;;;;;;;4.10;3.90;;;;;;;3.81;100.00;95805.31;4994135;28;20173;-68
2022/11/21 04:28:04;;;;;;;3.97;3.87;;;;;;;3.76;100.00;95805.16;4995684;28;20184;-67
2022/11/21 04:30:30;;;;;;;4.60;4.37;;;;;;;3.79;100.00;95793.59;4996242;28;20227;-67
2022/11/21 04:32:56;;;;;;;4.67;4.47;;;;;;;3.88;100.00;95797.53;4995402;28;20228;-68
2022/11/21 04:35:23;;;;;;;4.23;3.93;;;;;;;3.83;100.00;95805.13;4992570;28;20224;-67
2022/11/21 04:37:48;;;;;;;4.20;4.00;;;;;;;3.82;100.00;95808.72;4983866;28;20705;-67
2022/11/21 04:40:14;;;;;;;4.27;3.97;;;;;;;3.86;100.00;95820.25;4995429;28;20270;-68
2022/11/21 04:42:46;;;;;;;4.23;3.90;;;;;;;3.91;100.00;95826.41;4995671;28;20226;-68
2022/11/21 04:45:14;;;;;;;4.00;3.73;;;;;;;3.90;100.00;95811.06;4992823;28;20188;-67
2022/11/21 04:47:42;;;;;;;4.00;3.90;;;;;;;3.97;100.00;95817.00;4976383;28;20238;-67
2022/11/21 04:50:09;;;;;;;4.23;4.03;;;;;;;3.84;100.00;95817.09;4976601;28;20216;-68
2022/11/21 04:52:35;;;;;;;3.80;3.50;;;;;;;3.91;100.00;95797.88;4990503;28;20192;-68
2022/11/21 04:55:01;;;;;;;4.30;4.10;;;;;;;3.84;100.00;95802.34;4993866;28;20188;-68
2022/11/21 04:57:27;;;;;;;4.10;4.00;;;;;;;3.90;100.00;95800.72;4976152;28;20221;-68
2022/11/21 04:59:53;;;;;;;4.33;4.13;;;;;;;3.94;100.00;95797.47;4976143;28;20220;-69
2022/11/21 05:02:19;;;;;;;4.30;3.97;;;;;;;3.95;100.00;95798.28;4976737;28;20604;-67
2022/11/21 05:04:44;;;;;;;4.43;4.23;;;;;;;3.89;100.00;95793.94;4976353;28;20552;-68
2022/11/21 05:07:09;;;;;;;4.57;4.27;;;;;;;3.81;100.00;95800.16;4989218;28;20267;-68
2022/11/21 05:09:35;;;;;;;4.33;4.03;;;;;;;3.89;100.00;95806.88;4995174;28;20298;-69
2022/11/21 05:14:44;;;;;;;5.03;4.83;;;;;;;3.76;100.00;95797.38;4993932;28;20360;-68
2022/11/21 05:17:09;;;;;;;4.97;4.30;;;;;;;3.75;100.00;95796.59;4976593;28;20568;-68
2022/11/21 05:19:34;;;;;;;4.77;4.37;;;;;;;3.78;100.00;95786.81;4975843;28;20243;-68
2022/11/21 05:22:00;;;;;;;3.77;3.67;;;;;;;3.73;100.00;95790.81;4975786;28;20670;-68
2022/11/21 05:24:25;;;;;;;5.10;4.90;;;;;;;3.70;100.00;95788.66;4975864;28;20672;-69
2022/11/21 05:26:50;;;;;;;4.63;4.43;;;;;;;3.66;100.00;95804.81;4976958;28;20538;-68
2022/11/21 05:29:16;;;;;;;4.43;4.23;;;;;;;3.68;100.00;95802.81;4975534;28;20240;-68
2022/11/21 05:31:41;;;;;;;5.07;4.77;;;;;;;3.66;100.00;95802.22;4976153;28;20291;-67
2022/11/21 05:34:07;;;;;;;5.87;4.73;;;;;;;3.61;100.00;95802.06;4975667;28;20220;-68
2022/11/21 05:36:32;;;;;;;5.57;5.17;;;;;;;3.46;100.00;95801.50;4991688;28;20191;-68
2022/11/21 05:38:57;;;;;;;4.93;4.63;;;;;;;3.36;100.00;95812.31;4994767;28;20291;-69
2022/11/21 05:41:23;;;;;;;5.03;4.83;;;;;;;3.29;100.00;95808.94;4994611;28;20567;-68
2022/11/21 05:43:49;;;;;;;5.30;4.90;;;;;;;3.37;100.00;95816.50;4984114;28;20196;-68
2022/11/21 05:46:22;;;;;;;4.83;4.63;;;;;;;3.37;100.00;95816.50;4971309;28;20191;-69
2022/11/21 05:48:49;;;;;;;4.67;4.47;;;;;;;3.48;100.00;95826.22;4994168;28;20691;-68
2022/11/21 05:51:16;;;;;;;4.07;3.90;;;;;;;3.52;100.00;95829.19;4994623;28;20270;-68
2022/11/21 05:53:41;;;;;;;4.57;4.27;;;;;;;3.58;100.00;95821.38;4977080;28;20188;-68
2022/11/21 05:56:12;;;;;;;4.57;4.17;;;;;;;3.62;100.00;95827.75;4965690;28;20203;-68
2022/11/21 05:58:39;;;;;;;4.40;4.20;;;;;;;3.63;100.00;95826.75;4975706;28;20216;-69
2022/11/21 06:01:06;;;;;;;5.27;4.87;;;;;;;3.68;100.00;95839.88;4975633;28;20838;-68
2022/11/21 06:03:34;;;;;;;4.80;4.47;;;;;;;3.69;100.00;95838.88;4977064;28;20188;-68
2022/11/21 06:06:05;;;;;;;5.40;5.00;;;;;;;3.74;100.00;95838.25;4979899;28;20184;-68
2022/11/21 06:08:34;;;;;;;5.10;4.80;;;;;;;3.76;100.00;95829.28;4974991;28;20344;-68
2022/11/21 06:11:00;;;;;;;6.47;4.40;;;;;;;3.81;100.00;95831.25;4975096;28;20259;-68
2022/11/21 06:13:27;;;;;;;4.57;4.17;;;;;;;3.90;100.00;95837.75;4975157;28;20185;-68
2022/11/21 06:16:04;;;;;;;4.90;4.60;;;;;;;3.95;100.00;95837.16;4963305;28;20319;-68
2022/11/21 06:18:35;;;;;;;5.10;4.70;;;;;;;3.92;100.00;95843.53;4972714;28;20180;-68
2022/11/21 06:21:06;;;;;;;4.50;4.20;;;;;;;3.96;100.00;95834.34;4974725;28;20538;-68
2022/11/21 06:23:33;;;;;;;3.73;3.53;;;;;;;3.94;100.00;95835.56;4974783;28;20207;-68
2022/11/21 06:26:01;;;;;;;5.30;4.37;;;;;;;4.01;100.00;95833.75;4986802;28;20180;-69
2022/11/21 06:28:29;;;;;;;4.30;4.00;;;;;;;3.99;100.00;95836.53;4987392;28;20213;-68
2022/11/21 06:30:54;;;;;;;3.70;3.50;;;;;;;3.84;100.00;95835.22;4974572;28;20188;-69
2022/11/21 06:33:20;;;;;;;3.90;3.80;;;;;;;3.83;100.00;95837.03;4989269;28;20188;-69
2022/11/21 06:35:45;;;;;;;4.27;3.90;;;;;;;3.83;100.00;95842.22;4981002;28;20227;-70
2022/11/21 06:38:12;;;;;;;4.43;4.23;;;;;;;3.81;100.00;95844.19;4974386;28;20184;-69
2022/11/21 06:40:38;;;;;;;4.43;4.20;;;;;;;3.83;100.00;95836.22;4974190;28;20239;-71
2022/11/21 06:43:03;;;;;;;4.67;4.37;;;;;;;3.86;100.00;95840.97;4983563;28;20191;-69
2022/11/21 06:45:29;;;;;;;5.57;5.27;;;;;;;3.79;100.00;95837.66;4980512;28;20188;-68
2022/11/21 06:47:54;;;;;;;10.77;9.77;;;;;;;3.86;100.00;95841.78;4984933;28;20211;-68
2022/11/21 06:50:20;;;;;;;4.50;4.30;;;;;;;3.85;100.00;95849.75;4993404;28;20191;-69
2022/11/21 06:52:45;;;;;;;5.20;4.90;;;;;;;3.84;100.00;95848.19;4993742;28;20234;-67
2022/11/21 06:55:11;;;;;;;4.30;4.10;;;;;;;3.92;100.00;95856.50;4973104;28;20720;-67
2022/11/21 06:57:36;;;;;;;5.57;5.17;;;;;;;3.88;100.00;95862.31;4993209;28;20192;-67
2022/11/21 07:00:03;;;;;;;5.57;5.13;;;;;;;3.82;100.00;95861.34;4993170;28;20275;-66
2022/11/21 07:02:28;;;;;;;5.30;5.00;;;;;;;4.01;100.00;95857.06;4992881;28;20188;-67
2022/11/21 07:04:54;;;;;;;4.83;4.53;;;;;;;4.00;100.00;95858.88;4972247;28;20233;-68
2022/11/21 07:07:19;;;;;;;4.20;4.00;;;;;;;3.93;100.00;95855.50;4974026;28;20188;-66
2022/11/21 07:09:46;;;;;;;5.10;4.90;;;;;;;3.87;100.00;95845.16;4977833;28;20334;-66
2022/11/21 07:14:55;;;;;;;4.97;4.67;;;;;;;3.79;100.00;95853.97;4986635;28;20555;-66
2022/11/21 07:17:20;;;;;;;4.47;4.27;;;;;;;3.93;100.00;95852.91;4973778;28;20180;-66
2022/11/21 07:19:46;;;;;;;5.00;4.80;;;;;;;4.08;100.00;95845.63;4977057;28;20184;-67
2022/11/21 07:22:11;;;;;;;4.80;4.40;;;;;;;3.73;100.00;95844.47;4988534;28;20176;-67
2022/11/21 07:24:36;;;;;;;4.50;4.30;;;;;;;3.62;100.00;95840.69;4991325;28;20551;-67
2022/11/21 07:27:02;;;;;;;5.87;5.40;;;;;;;3.74;100.00;95840.84;4983512;28;20185;-67
2022/11/21 07:29:27;;;;;;;4.97;4.67;;;;;;;3.87;100.00;95843.38;4956221;28;20677;-67
2022/11/21 07:31:53;;;;;;;5.17;4.87;;;;;;;4.13;100.00;95843.22;4973581;28;20176;-68
2022/11/21 07:34:19;;;;;;;5.10;4.80;;;;;;;4.23;100.00;95847.97;4977193;28;20183;-67
2022/11/21 07:36:44;;;;;;;5.67;5.37;;;;;;;4.15;100.00;95846.41;4992932;28;20191;-67
2022/11/21 07:39:09;;;;;;;4.57;4.27;;;;;;;4.06;100.00;95852.06;4992316;28;20657;-67
2022/11/21 07:41:35;;;;;;;5.40;4.70;;;;;;;4.35;100.00;95841.06;4979360;28;20184;-68
2022/11/21 07:44:00;;;;;;;4.97;4.27;;;;;;;4.35;100.00;95833.28;4972698;28;20220;-67
2022/11/21 07:46:26;;;;;;;5.43;3.93;;;;;;;4.33;100.00;95845.69;4989526;28;20176;-68
2022/11/21 07:48:51;;;;;;;5.73;5.23;;;;;;;4.17;100.00;95839.22;4988439;28;20199;-69
2022/11/21 07:51:16;;;;;;;5.37;5.03;;;;;;;4.27;100.00;95843.13;4992625;28;20263;-67
2022/11/21 07:53:42;;;;;;;4.90;4.60;;;;;;;4.36;100.00;95842.66;4975704;28;20276;-67
2022/11/21 07:56:09;;;;;;;4.37;4.17;;;;;;;4.30;100.00;95848.69;4973315;28;20200;-67
2022/11/21 07:58:35;;;;;;;7.23;4.57;;;;;;;5.73;100.00;95836.31;4973249;28;20201;-67
2022/11/21 08:01:05;;;;;;;5.23;4.47;;;;;;;5.81;100.00;95846.41;4975123;28;20244;-67
2022/11/21 08:03:32;;;;;;;6.07;5.67;;;;;;;5.05;100.00;95839.09;4972218;28;20280;-65
2022/11/21 08:06:01;;;;;;;5.27;4.87;;;;;;;4.91;100.00;95843.59;4976530;28;20176;-65
2022/11/21 08:08:26;;;;;;;5.20;4.80;;;;;;;5.01;100.00;95846.50;4986386;28;20212;-66
2022/11/21 08:10:52;;;;;;;5.43;4.93;;;;;;;4.90;100.00;95843.84;4976396;28;20204;-67
2022/11/21 08:13:17;;;;;;;4.63;4.20;;;;;;;4.75;100.00;95843.34;4976804;28;20649;-68
2022/11/21 08:15:42;;;;;;;4.37;4.07;;;;;;;4.76;100.00;95840.56;4975625;28;20649;-65
2022/11/21 08:18:19;;;;;;;4.80;4.47;;;;;;;4.87;100.00;95844.25;4977124;28;20195;-66
2022/11/21 08:20:44;;;;;;;7.07;4.70;;;;;;;4.87;100.00;95839.84;4976999;28;20684;-65
2022/11/21 08:23:10;;;;;;;4.40;4.10;;;;;;;4.79;100.00;95836.75;4959262;28;20230;-65
2022/11/21 08:25:40;;;;;;;6.27;5.87;;;;;;;4.77;100.00;95830.97;4976789;28;20176;-65
2022/11/21 08:28:06;;;;;;;5.50;5.20;;;;;;;4.76;100.00;95837.16;4976132;28;20300;-66
2022/11/21 08:30:33;;;;;;;4.97;4.43;;;;;;;4.87;100.00;95839.06;4976044;28;20315;-66
2022/11/21 08:32:58;;;;;;;6.37;5.27;;;;;;;4.94;100.00;95832.81;4976649;28;20186;-64
2022/11/21 08:35:24;;;;;;;5.10;4.80;;;;;;;5.00;100.00;95836.34;4976577;28;20316;-66
2022/11/21 08:37:58;;;;;;;8.13;4.93;;;;;;;5.19;100.00;95834.53;4976573;28;20252;-66
2022/11/21 08:40:25;;;;;;;5.00;4.67;;;;;;;5.34;100.00;95838.38;4976252;28;20645;-66
2022/11/21 08:43:00;;;;;;;6.90;6.50;;;;;;;5.48;100.00;95844.22;4995204;28;20190;-65
2022/11/21 08:45:26;;;;;;;11.07;10.47;;;;;;;5.37;100.00;95840.53;4995097;28;20227;-66
2022/11/21 08:47:52;;;;;;;6.60;5.97;;;;;;;5.39;100.00;95833.34;4990698;28;20551;-65
2022/11/21 08:50:18;;;;;;;4.30;4.00;;;;;;;5.49;100.00;95827.63;4985589;28;20288;-65
2022/11/21 08:52:43;;;;;;;4.80;4.47;;;;;;;5.52;100.00;95831.59;4975951;28;20260;-65
2022/11/21 08:55:09;;;;;;;4.30;4.00;;;;;;;5.58;100.00;95834.09;4977403;28;20200;-65
2022/11/21 08:57:38;;;;;;;5.30;4.37;;;;;;;5.76;100.00;95828.88;4975798;28;20192;-65
2022/11/21 09:00:04;;;;;;;5.23;4.43;;;;;;;5.66;100.00;95820.81;4983748;28;20191;-66
2022/11/21 09:02:29;;;;;;;4.33;4.10;;;;;;;5.74;100.00;95822.31;4977377;28;20196;-65
2022/11/21 09:04:55;;;;;;;7.63;5.77;;;;;;;5.64;100.00;95820.22;4986244;28;20196;-65
2022/11/21 09:07:20;;;;;;;6.03;5.57;;;;;;;5.86;100.00;95815.34;4990609;28;20271;-65
2022/11/21 09:09:45;;;;;;;6.43;5.83;;;;;;;5.93;100.00;95812.69;4979315;28;20236;-65
2022/11/21 09:12:11;;;;;;;6.67;6.10;;;;;;;6.00;100.00;95810.78;4960836;28;20652;-65
2022/11/21 09:20:04;;;;;;;6.37;5.40;;;;;;;6.18;100.00;95790.72;4979053;28;20254;-66
2022/11/21 09:22:30;;;;;;;6.07;5.47;;;;;;;6.32;100.00;95799.09;4990967;28;20708;-66
2022/11/21 09:24:55;;;;;;;6.37;5.77;;;;;;;6.47;100.00;95798.66;4960843;28;20196;-65
2022/11/21 09:27:20;;;;;;;5.80;5.30;;;;;;;6.47;100.00;95803.88;4978219;28;20278;-67
2022/11/21 09:29:46;;;;;;;7.67;5.37;;;;;;;6.38;100.00;95798.22;4956877;28;20376;-65
2022/11/21 09:32:11;;;;;;;6.87;4.63;;;;;;;6.38;100.00;95794.81;4952213;28;20538;-65
2022/11/21 09:34:36;;;;;;;6.87;6.37;;;;;;;6.28;100.00;95805.78;4977868;28;20188;-65
2022/11/21 09:37:02;;;;;;;7.63;6.90;;;;;;;6.30;100.00;95808.16;4977149;28;20187;-65
2022/11/21 09:39:27;;;;;;;6.20;4.43;;;;;;;6.39;100.00;95805.00;4975453;28;20195;-65
2022/11/21 09:41:58;;;;;;;6.13;3.70;;;;;;;6.51;100.00;95805.03;4982184;28;20184;-65
2022/11/21 09:44:53;;;;;;;4.60;4.20;;;;;;;6.56;100.00;95805.16;4993291;28;20188;-65
2022/11/21 09:47:25;;;;;;;4.47;4.17;;;;;;;6.64;100.00;95802.97;4984894;28;20196;-66
2022/11/21 09:50:16;;;;;;;7.90;4.53;;;;;;;6.76;100.00;95808.19;4975144;28;20291;-65
2022/11/21 09:53:11;;;;;;;5.33;4.83;;;;;;;6.93;100.00;95803.91;4978288;28;20225;-65
2022/11/21 09:55:49;;;;;;;7.50;6.93;;;;;;;6.98;100.00;95796.19;4947176;28;20584;-65
2022/11/21 09:58:23;;;;;;;6.00;5.50;;;;;;;6.92;100.00;95791.88;4992813;28;20187;-65
2022/11/21 10:00:52;;;;;;;5.07;4.30;;;;;;;6.90;100.00;95786.13;4966017;28;20172;-65
2022/11/21 10:03:20;;;;;;;5.03;4.53;;;;;;;6.90;100.00;95780.13;4984834;28;20189;-66
2022/11/21 10:05:53;;;;;;;4.90;4.60;;;;;;;6.80;100.00;95772.09;4980910;28;20187;-65
2022/11/21 10:08:26;;;;;;;6.37;3.97;;;;;;;6.91;100.00;95768.69;4990941;28;20188;-68
2022/11/21 10:12:35;;;;;;;5.13;4.83;;;;;;;6.94;100.00;95765.63;4982704;28;20226;-72
2022/11/21 10:14:39;;;;;;;6.03;5.57;;;;;;;6.78;100.00;95753.28;4958114;28;20204;-70
2022/11/21 10:17:41;;;;;;;14.63;5.10;;;;;;;6.89;100.00;95752.50;4990234;28;20180;-69
2022/11/21 10:20:09;;;;;;;7.80;7.23;;;;;;;6.95;100.00;95748.97;4994415;28;20183;-73
2022/11/21 10:22:48;;;;;;;6.83;5.47;;;;;;;7.03;100.00;95738.97;4982351;28;20191;-73
2022/11/21 10:25:22;;;;;;;4.73;3.97;;;;;;;7.15;100.00;95725.94;4956923;28;20211;-72
2022/11/21 10:27:53;;;;;;;5.40;4.30;;;;;;;7.10;100.00;95729.22;4974310;28;20187;-74
2022/11/21 10:30:20;;;;;;;9.93;4.63;;;;;;;7.33;100.00;95720.56;4983266;28;20319;-72
2022/11/21 10:32:49;;;;;;;4.47;4.07;;;;;;;7.32;99.89;95711.16;4978093;28;20184;-71
2022/11/21 10:35:28;;;;;;;6.83;6.20;;;;;;;7.27;98.19;95711.06;4985503;28;20215;-71
2022/11/21 10:38:01;;;;;;;8.40;6.73;;;;;;;7.39;98.87;95711.00;4993555;28;20191;-72
2022/11/21 10:40:33;;;;;;;6.17;4.73;;;;;;;7.35;97.82;95715.13;4975496;28;20257;-69
2022/11/21 10:46:01;;;;;;;6.50;5.93;;;;;;;7.74;96.01;95713.47;4958564;28;20183;-71
2022/11/21 10:48:27;;;;;;;7.90;5.63;;;;;;;7.88;96.96;95706.91;4958393;28;20212;-69
2022/11/21 10:51:05;;;;;;;12.57;11.87;;;;;;;7.98;96.50;95699.25;4968424;28;20228;-71
2022/11/21 10:56:17;;;;;;;7.40;6.70;;;;;;;8.04;94.79;95689.69;4985255;28;20207;-69
2022/11/21 10:59:19;;;;;;;8.43;7.43;;;;;;;8.04;93.89;95684.47;4990435;28;20219;-67
2022/11/21 11:01:54;;;;;;;15.07;13.57;;;;;;;8.02;94.04;95674.28;4990671;28;20186;-69
2022/11/21 11:04:20;;;;;;;12.07;10.97;;;;;;;8.06;91.60;95667.56;4980988;28;20204;-68
2022/11/21 11:06:46;;;;;;;14.57;13.53;;;;;;;7.85;92.40;95669.06;4975605;28;20188;-69
2022/11/21 11:09:28;;;;;;;13.83;12.87;;;;;;;8.05;93.93;95668.59;4957851;28;20213;-69
2022/11/21 11:15:25;;;;;;;8.17;7.20;;;;;;;8.14;91.17;95658.53;4959254;28;20566;-69
2022/11/21 11:17:57;;;;;;;15.40;13.93;;;;;;;8.34;90.33;95641.38;4981068;28;20311;-69
2022/11/21 11:20:37;;;;;;;10.87;10.03;;;;;;;8.30;88.15;95642.09;4992448;28;20262;-69
2022/11/21 11:23:32;;;;;;;12.33;9.97;;;;;;;8.34;87.95;95636.16;4974828;28;20259;-70
2022/11/21 11:25:59;;;;;;;6.83;6.33;;;;;;;8.32;87.94;95632.19;4952749;28;20701;-69
2022/11/21 11:28:26;;;;;;;18.00;17.00;;;;;;;8.30;83.63;95626.44;4979587;28;20199;-69
2022/11/21 11:30:53;;;;;;;19.77;18.40;;;;;;;8.11;83.72;95632.91;4980718;28;20176;-73
2022/11/21 11:33:30;;;;;;;101.30;95.50;;;;;;;8.03;85.92;95628.09;4975088;28;20629;-69
2022/11/21 11:36:21;;;;;;;13.57;12.63;;;;;;;8.06;83.79;95614.59;4971782;28;20189;-69
2022/11/21 11:38:57;;;;;;;8.50;7.83;;;;;;;8.10;82.97;95616.47;4976769;28;20656;-69
2022/11/21 11:47:49;;;;;;;8.37;7.57;;;;;;;7.92;81.96;95612.28;4976751;28;20192;-68
2022/11/21 11:50:21;;;;;;;21.53;20.00;;;;;;;8.06;79.83;95609.34;4988368;28;20712;-71
2022/11/21 11:53:16;;;;;;;27.97;26.43;;;;;;;7.78;79.25;95603.22;4990029;28;20172;-73
2022/11/21 11:56:23;;;;;;;8.20;7.50;;;;;;;7.76;80.91;95592.22;4987658;28;20180;-69
2022/11/21 11:59:00;;;;;;;9.23;8.63;;;;;;;8.05;82.53;95595.53;4892206;29;20197;-70
2022/11/21 12:01:43;;;;;;;16.93;15.73;;;;;;;8.22;82.75;95583.22;4885870;29;20183;-69
2022/11/21 12:04:15;;;;;;;12.67;11.83;;;;;;;8.06;83.37;95586.66;4885618;29;20331;-69
2022/11/21 12:07:01;;;;;;;15.63;14.43;;;;;;;8.18;83.30;95570.91;4888439;29;20283;-72